sensor_id;sensor_type;location;lat;lon;timestamp;temperature;humidity
32753;DHT22;19121;52.428;10.816;2023-04-01T00:01:05;19.60;48.40
32753;DHT22;19121;52.428;10.816;2023-04-01T00:03:31;19.60;48.40
32753;DHT22;19121;52.428;10.816;2023-04-01T00:05:58;19.60;48.40
32753;DHT22;19121;52.428;10.816;2023-04-01T00:08:24;19.60;48.40
32753;DHT22;19121;52.428;10.816;2023-04-01T00:10:50;19.60;48.40
32753;DHT22;19121;52.428;10.816;2023-04-01T00:13:15;19.60;48.40
32753;DHT22;19121;52.428;10.816;2023-04-01T00:15:41;19.60;48.40
32753;DHT22;19121;52.428;10.816;2023-04-01T00:18:07;19.60;48.40
32753;DHT22;19121;52.428;10.816;2023-04-01T00:20:32;19.50;48.40
32753;DHT22;19121;52.428;10.816;2023-04-01T00:22:58;19.60;48.40
32753;DHT22;19121;52.428;10.816;2023-04-01T00:25:23;19.50;48.30
32753;DHT22;19121;52.428;10.816;2023-04-01T00:27:49;19.50;48.30
32753;DHT22;19121;52.428;10.816;2023-04-01T00:30:15;19.50;48.40
32753;DHT22;19121;52.428;10.816;2023-04-01T00:32:40;19.50;48.40
32753;DHT22;19121;52.428;10.816;2023-04-01T00:35:06;19.50;48.40
32753;DHT22;19121;52.428;10.816;2023-04-01T00:37:34;19.50;48.40
32753;DHT22;19121;52.428;10.816;2023-04-01T00:39:59;19.50;48.40
32753;DHT22;19121;52.428;10.816;2023-04-01T00:42:24;19.50;48.40
32753;DHT22;19121;52.428;10.816;2023-04-01T00:44:51;19.50;48.40
32753;DHT22;19121;52.428;10.816;2023-04-01T00:47:17;19.40;48.40
32753;DHT22;19121;52.428;10.816;2023-04-01T00:49:44;19.50;48.40
32753;DHT22;19121;52.428;10.816;2023-04-01T00:52:11;19.50;48.40
32753;DHT22;19121;52.428;10.816;2023-04-01T00:54:37;19.50;48.40
32753;DHT22;19121;52.428;10.816;2023-04-01T00:57:08;19.50;48.40
32753;DHT22;19121;52.428;10.816;2023-04-01T00:59:42;19.40;48.40
32753;DHT22;19121;52.428;10.816;2023-04-01T01:02:08;19.50;48.40
32753;DHT22;19121;52.428;10.816;2023-04-01T01:04:35;19.40;48.40
32753;DHT22;19121;52.428;10.816;2023-04-01T01:09:49;19.40;48.40
32753;DHT22;19121;52.428;10.816;2023-04-01T01:12:26;19.40;48.40
32753;DHT22;19121;52.428;10.816;2023-04-01T01:14:59;19.40;48.40
32753;DHT22;19121;52.428;10.816;2023-04-01T01:20:16;19.40;48.40
32753;DHT22;19121;52.428;10.816;2023-04-01T01:22:51;19.40;48.40
32753;DHT22;19121;52.428;10.816;2023-04-01T01:25:30;19.40;48.40
32753;DHT22;19121;52.428;10.816;2023-04-01T01:30:48;19.40;48.50
32753;DHT22;19121;52.428;10.816;2023-04-01T01:33:20;19.40;48.40
32753;DHT22;19121;52.428;10.816;2023-04-01T01:35:49;19.40;48.40
32753;DHT22;19121;52.428;10.816;2023-04-01T01:38:17;19.40;48.40
32753;DHT22;19121;52.428;10.816;2023-04-01T01:40:45;19.40;48.40
32753;DHT22;19121;52.428;10.816;2023-04-01T01:43:12;19.40;48.40
32753;DHT22;19121;52.428;10.816;2023-04-01T01:45:41;19.40;48.40
32753;DHT22;19121;52.428;10.816;2023-04-01T01:48:07;19.40;48.40
32753;DHT22;19121;52.428;10.816;2023-04-01T01:50:34;19.40;48.40
32753;DHT22;19121;52.428;10.816;2023-04-01T01:53:03;19.30;48.40
32753;DHT22;19121;52.428;10.816;2023-04-01T01:55:30;19.40;48.50
32753;DHT22;19121;52.428;10.816;2023-04-01T01:57:57;19.40;48.50
32753;DHT22;19121;52.428;10.816;2023-04-01T02:00:24;19.30;48.40
32753;DHT22;19121;52.428;10.816;2023-04-01T02:02:49;19.30;48.40
32753;DHT22;19121;52.428;10.816;2023-04-01T02:05:19;19.30;48.40
32753;DHT22;19121;52.428;10.816;2023-04-01T02:07:47;19.30;48.40
32753;DHT22;19121;52.428;10.816;2023-04-01T02:10:14;19.30;48.40
32753;DHT22;19121;52.428;10.816;2023-04-01T02:12:40;19.30;48.40
32753;DHT22;19121;52.428;10.816;2023-04-01T02:15:12;19.30;48.40
32753;DHT22;19121;52.428;10.816;2023-04-01T02:17:40;19.30;48.40
32753;DHT22;19121;52.428;10.816;2023-04-01T02:20:09;19.30;48.40
32753;DHT22;19121;52.428;10.816;2023-04-01T02:22:37;19.30;48.40
32753;DHT22;19121;52.428;10.816;2023-04-01T02:25:14;19.30;48.40
32753;DHT22;19121;52.428;10.816;2023-04-01T02:27:41;19.30;48.40
32753;DHT22;19121;52.428;10.816;2023-04-01T02:30:07;19.30;48.40
32753;DHT22;19121;52.428;10.816;2023-04-01T02:32:33;19.30;48.40
32753;DHT22;19121;52.428;10.816;2023-04-01T02:35:00;19.30;48.40
32753;DHT22;19121;52.428;10.816;2023-04-01T02:37:28;19.30;48.50
32753;DHT22;19121;52.428;10.816;2023-04-01T02:39:53;19.20;48.40
32753;DHT22;19121;52.428;10.816;2023-04-01T02:42:19;19.30;48.40
32753;DHT22;19121;52.428;10.816;2023-04-01T02:44:44;19.30;48.40
32753;DHT22;19121;52.428;10.816;2023-04-01T02:47:10;19.30;48.40
32753;DHT22;19121;52.428;10.816;2023-04-01T02:49:35;19.30;48.40
32753;DHT22;19121;52.428;10.816;2023-04-01T02:52:01;19.20;48.40
32753;DHT22;19121;52.428;10.816;2023-04-01T02:54:26;19.30;48.40
32753;DHT22;19121;52.428;10.816;2023-04-01T02:56:51;19.30;48.40
32753;DHT22;19121;52.428;10.816;2023-04-01T02:59:17;19.30;48.40
32753;DHT22;19121;52.428;10.816;2023-04-01T03:01:42;19.20;48.40
32753;DHT22;19121;52.428;10.816;2023-04-01T03:04:08;19.30;48.40
32753;DHT22;19121;52.428;10.816;2023-04-01T03:06:33;19.30;48.40
32753;DHT22;19121;52.428;10.816;2023-04-01T03:08:59;19.20;48.40
32753;DHT22;19121;52.428;10.816;2023-04-01T03:11:24;19.20;48.40
32753;DHT22;19121;52.428;10.816;2023-04-01T03:13:51;19.20;48.40
32753;DHT22;19121;52.428;10.816;2023-04-01T03:16:16;19.20;48.40
32753;DHT22;19121;52.428;10.816;2023-04-01T03:18:42;19.20;48.40
32753;DHT22;19121;52.428;10.816;2023-04-01T03:21:17;19.20;48.40
32753;DHT22;19121;52.428;10.816;2023-04-01T03:23:43;19.20;49.10
32753;DHT22;19121;52.428;10.816;2023-04-01T03:26:08;19.20;48.40
32753;DHT22;19121;52.428;10.816;2023-04-01T03:28:34;19.20;48.40
32753;DHT22;19121;52.428;10.816;2023-04-01T03:30:59;19.20;48.40
32753;DHT22;19121;52.428;10.816;2023-04-01T03:33:25;19.20;48.40
32753;DHT22;19121;52.428;10.816;2023-04-01T03:35:50;19.20;48.40
32753;DHT22;19121;52.428;10.816;2023-04-01T03:38:17;19.20;48.40
32753;DHT22;19121;52.428;10.816;2023-04-01T03:40:43;19.20;48.40
32753;DHT22;19121;52.428;10.816;2023-04-01T03:43:08;19.20;48.40
32753;DHT22;19121;52.428;10.816;2023-04-01T03:45:35;19.20;48.40
32753;DHT22;19121;52.428;10.816;2023-04-01T03:48:00;19.10;48.40
32753;DHT22;19121;52.428;10.816;2023-04-01T03:50:26;19.10;48.40
32753;DHT22;19121;52.428;10.816;2023-04-01T03:52:51;19.20;48.40
32753;DHT22;19121;52.428;10.816;2023-04-01T03:55:17;19.20;48.40
32753;DHT22;19121;52.428;10.816;2023-04-01T03:57:43;19.10;48.30
32753;DHT22;19121;52.428;10.816;2023-04-01T04:00:09;19.10;48.40
32753;DHT22;19121;52.428;10.816;2023-04-01T04:02:34;19.10;48.40
32753;DHT22;19121;52.428;10.816;2023-04-01T04:05:00;19.10;48.40
32753;DHT22;19121;52.428;10.816;2023-04-01T04:07:26;19.10;48.40
32753;DHT22;19121;52.428;10.816;2023-04-01T04:09:51;19.10;48.40
32753;DHT22;19121;52.428;10.816;2023-04-01T04:12:17;19.10;48.40
32753;DHT22;19121;52.428;10.816;2023-04-01T04:14:42;19.10;48.40
32753;DHT22;19121;52.428;10.816;2023-04-01T04:17:09;19.10;48.40
32753;DHT22;19121;52.428;10.816;2023-04-01T04:19:38;19.10;48.40
32753;DHT22;19121;52.428;10.816;2023-04-01T04:22:04;19.10;48.40
32753;DHT22;19121;52.428;10.816;2023-04-01T04:24:29;19.10;48.40
32753;DHT22;19121;52.428;10.816;2023-04-01T04:26:55;19.10;48.40
32753;DHT22;19121;52.428;10.816;2023-04-01T04:29:20;19.10;48.50
32753;DHT22;19121;52.428;10.816;2023-04-01T04:31:46;19.10;48.40
32753;DHT22;19121;52.428;10.816;2023-04-01T04:34:11;19.10;48.50
32753;DHT22;19121;52.428;10.816;2023-04-01T04:36:37;19.10;48.50
32753;DHT22;19121;52.428;10.816;2023-04-01T04:39:02;19.10;48.40
32753;DHT22;19121;52.428;10.816;2023-04-01T04:41:28;19.10;48.50
32753;DHT22;19121;52.428;10.816;2023-04-01T04:43:54;19.10;48.50
32753;DHT22;19121;52.428;10.816;2023-04-01T04:46:20;19.10;48.50
32753;DHT22;19121;52.428;10.816;2023-04-01T04:48:46;19.10;48.50
32753;DHT22;19121;52.428;10.816;2023-04-01T04:51:12;19.10;48.50
32753;DHT22;19121;52.428;10.816;2023-04-01T04:53:38;19.00;48.40
32753;DHT22;19121;52.428;10.816;2023-04-01T04:56:03;19.10;48.50
32753;DHT22;19121;52.428;10.816;2023-04-01T04:58:29;19.10;48.50
32753;DHT22;19121;52.428;10.816;2023-04-01T05:00:54;19.00;48.40
32753;DHT22;19121;52.428;10.816;2023-04-01T05:03:20;19.00;48.40
32753;DHT22;19121;52.428;10.816;2023-04-01T05:05:49;19.00;48.40
32753;DHT22;19121;52.428;10.816;2023-04-01T05:08:14;19.00;48.40
32753;DHT22;19121;52.428;10.816;2023-04-01T05:10:40;19.00;48.40
32753;DHT22;19121;52.428;10.816;2023-04-01T05:13:05;19.00;48.40
32753;DHT22;19121;52.428;10.816;2023-04-01T05:15:31;19.00;48.50
32753;DHT22;19121;52.428;10.816;2023-04-01T05:17:57;19.00;48.40
32753;DHT22;19121;52.428;10.816;2023-04-01T05:20:22;19.00;48.40
32753;DHT22;19121;52.428;10.816;2023-04-01T05:22:48;19.00;48.50
32753;DHT22;19121;52.428;10.816;2023-04-01T05:25:13;19.00;48.40
32753;DHT22;19121;52.428;10.816;2023-04-01T05:27:39;19.10;48.50
32753;DHT22;19121;52.428;10.816;2023-04-01T05:30:04;19.10;48.50
32753;DHT22;19121;52.428;10.816;2023-04-01T05:32:31;19.10;48.50
32753;DHT22;19121;52.428;10.816;2023-04-01T05:34:56;19.10;48.40
32753;DHT22;19121;52.428;10.816;2023-04-01T05:37:21;19.10;48.50
32753;DHT22;19121;52.428;10.816;2023-04-01T05:39:48;19.10;48.40
32753;DHT22;19121;52.428;10.816;2023-04-01T05:42:13;19.10;48.40
32753;DHT22;19121;52.428;10.816;2023-04-01T05:44:39;19.10;48.40
32753;DHT22;19121;52.428;10.816;2023-04-01T05:47:04;19.10;48.50
32753;DHT22;19121;52.428;10.816;2023-04-01T05:49:30;19.10;48.40
32753;DHT22;19121;52.428;10.816;2023-04-01T05:51:56;19.10;48.40
32753;DHT22;19121;52.428;10.816;2023-04-01T05:54:21;19.10;48.40
32753;DHT22;19121;52.428;10.816;2023-04-01T05:56:47;19.10;48.40
32753;DHT22;19121;52.428;10.816;2023-04-01T05:59:12;19.10;48.50
32753;DHT22;19121;52.428;10.816;2023-04-01T06:01:38;19.10;48.50
32753;DHT22;19121;52.428;10.816;2023-04-01T06:04:03;19.10;48.50
32753;DHT22;19121;52.428;10.816;2023-04-01T06:06:29;19.10;48.50
32753;DHT22;19121;52.428;10.816;2023-04-01T06:08:57;19.10;48.50
32753;DHT22;19121;52.428;10.816;2023-04-01T06:11:37;19.10;48.50
32753;DHT22;19121;52.428;10.816;2023-04-01T06:14:17;19.10;48.50
32753;DHT22;19121;52.428;10.816;2023-04-01T06:16:49;19.00;48.50
32753;DHT22;19121;52.428;10.816;2023-04-01T06:24:40;19.10;48.50
32753;DHT22;19121;52.428;10.816;2023-04-01T06:27:21;19.10;48.50
32753;DHT22;19121;52.428;10.816;2023-04-01T06:47:20;19.10;48.60
32753;DHT22;19121;52.428;10.816;2023-04-01T06:49:52;19.10;48.60
32753;DHT22;19121;52.428;10.816;2023-04-01T06:55:12;19.10;48.60
32753;DHT22;19121;52.428;10.816;2023-04-01T06:57:42;19.10;48.60
32753;DHT22;19121;52.428;10.816;2023-04-01T07:00:13;19.10;48.60
32753;DHT22;19121;52.428;10.816;2023-04-01T07:02:45;19.10;48.60
32753;DHT22;19121;52.428;10.816;2023-04-01T07:05:13;19.10;48.60
32753;DHT22;19121;52.428;10.816;2023-04-01T07:07:41;19.10;48.60
32753;DHT22;19121;52.428;10.816;2023-04-01T07:10:13;19.10;48.70
32753;DHT22;19121;52.428;10.816;2023-04-01T07:12:42;19.10;48.70
32753;DHT22;19121;52.428;10.816;2023-04-01T07:15:19;19.10;48.70
32753;DHT22;19121;52.428;10.816;2023-04-01T07:17:45;19.10;48.70
32753;DHT22;19121;52.428;10.816;2023-04-01T07:20:30;19.10;48.70
32753;DHT22;19121;52.428;10.816;2023-04-01T07:22:58;19.10;48.70
32753;DHT22;19121;52.428;10.816;2023-04-01T07:25:43;19.10;48.80
32753;DHT22;19121;52.428;10.816;2023-04-01T07:28:11;19.10;48.80
32753;DHT22;19121;52.428;10.816;2023-04-01T07:33:12;19.20;48.80
32753;DHT22;19121;52.428;10.816;2023-04-01T07:35:42;19.20;48.80
32753;DHT22;19121;52.428;10.816;2023-04-01T07:40:46;19.20;48.90
32753;DHT22;19121;52.428;10.816;2023-04-01T07:43:22;19.20;48.90
32753;DHT22;19121;52.428;10.816;2023-04-01T07:53:25;19.20;49.00
32753;DHT22;19121;52.428;10.816;2023-04-01T07:55:56;19.20;49.10
32753;DHT22;19121;52.428;10.816;2023-04-01T07:58:27;19.30;49.10
32753;DHT22;19121;52.428;10.816;2023-04-01T08:06:24;19.30;49.10
32753;DHT22;19121;52.428;10.816;2023-04-01T08:09:10;19.30;49.10
32753;DHT22;19121;52.428;10.816;2023-04-01T08:14:28;19.30;49.10
32753;DHT22;19121;52.428;10.816;2023-04-01T08:22:27;19.40;49.10
32753;DHT22;19121;52.428;10.816;2023-04-01T08:24:54;19.40;49.10
32753;DHT22;19121;52.428;10.816;2023-04-01T08:27:26;19.40;49.10
32753;DHT22;19121;52.428;10.816;2023-04-01T08:30:02;19.40;49.20
32753;DHT22;19121;52.428;10.816;2023-04-01T08:32:30;19.40;49.10
32753;DHT22;19121;52.428;10.816;2023-04-01T08:35:07;19.40;49.10
32753;DHT22;19121;52.428;10.816;2023-04-01T08:37:36;19.40;49.10
32753;DHT22;19121;52.428;10.816;2023-04-01T08:40:15;19.50;49.20
32753;DHT22;19121;52.428;10.816;2023-04-01T08:42:49;19.50;49.20
32753;DHT22;19121;52.428;10.816;2023-04-01T08:45:30;19.50;49.10
32753;DHT22;19121;52.428;10.816;2023-04-01T08:48:07;19.50;49.70
32753;DHT22;19121;52.428;10.816;2023-04-01T08:50:38;19.50;49.10
32753;DHT22;19121;52.428;10.816;2023-04-01T08:58:37;19.60;49.10
32753;DHT22;19121;52.428;10.816;2023-04-01T09:01:13;19.60;49.20
32753;DHT22;19121;52.428;10.816;2023-04-01T09:06:24;19.70;49.20
32753;DHT22;19121;52.428;10.816;2023-04-01T09:17:08;19.70;48.90
32753;DHT22;19121;52.428;10.816;2023-04-01T09:19:42;19.80;48.90
32753;DHT22;19121;52.428;10.816;2023-04-01T09:24:43;19.80;48.90
32753;DHT22;19121;52.428;10.816;2023-04-01T09:29:50;19.80;48.80
32753;DHT22;19121;52.428;10.816;2023-04-01T09:32:23;19.80;48.80
32753;DHT22;19121;52.428;10.816;2023-04-01T09:34:52;19.80;48.80
32753;DHT22;19121;52.428;10.816;2023-04-01T09:40:00;19.90;48.90
32753;DHT22;19121;52.428;10.816;2023-04-01T09:42:31;19.80;48.80
32753;DHT22;19121;52.428;10.816;2023-04-01T09:45:05;19.90;48.80
32753;DHT22;19121;52.428;10.816;2023-04-01T09:50:14;19.90;48.80
32753;DHT22;19121;52.428;10.816;2023-04-01T09:52:44;19.90;48.80
32753;DHT22;19121;52.428;10.816;2023-04-01T09:55:19;19.90;48.80
32753;DHT22;19121;52.428;10.816;2023-04-01T09:58:01;19.90;48.70
32753;DHT22;19121;52.428;10.816;2023-04-01T10:06:17;19.90;48.70
32753;DHT22;19121;52.428;10.816;2023-04-01T10:14:24;19.90;48.70
32753;DHT22;19121;52.428;10.816;2023-04-01T10:19:42;19.90;48.70
32753;DHT22;19121;52.428;10.816;2023-04-01T10:22:17;19.90;48.70
32753;DHT22;19121;52.428;10.816;2023-04-01T10:27:21;19.90;48.70
32753;DHT22;19121;52.428;10.816;2023-04-01T10:29:59;19.90;48.70
32753;DHT22;19121;52.428;10.816;2023-04-01T10:32:50;19.90;48.70
32753;DHT22;19121;52.428;10.816;2023-04-01T10:35:44;19.90;48.70
32753;DHT22;19121;52.428;10.816;2023-04-01T10:46:34;19.90;48.60
32753;DHT22;19121;52.428;10.816;2023-04-01T10:59:52;20.00;48.80
32753;DHT22;19121;52.428;10.816;2023-04-01T11:10:22;20.00;48.80
32753;DHT22;19121;52.428;10.816;2023-04-01T11:13:08;20.00;48.80
32753;DHT22;19121;52.428;10.816;2023-04-01T11:15:48;20.00;48.80
32753;DHT22;19121;52.428;10.816;2023-04-01T11:18:44;20.00;48.80
32753;DHT22;19121;52.428;10.816;2023-04-01T11:23:49;20.00;48.80
32753;DHT22;19121;52.428;10.816;2023-04-01T11:36:47;20.00;48.80
32753;DHT22;19121;52.428;10.816;2023-04-01T11:44:27;20.00;48.80
32753;DHT22;19121;52.428;10.816;2023-04-01T11:46:59;20.00;48.80
32753;DHT22;19121;52.428;10.816;2023-04-01T11:54:51;20.10;48.90
32753;DHT22;19121;52.428;10.816;2023-04-01T12:05:24;20.10;48.90
32753;DHT22;19121;52.428;10.816;2023-04-01T12:08:04;20.10;48.90
32753;DHT22;19121;52.428;10.816;2023-04-01T12:18:36;20.10;48.90
32753;DHT22;19121;52.428;10.816;2023-04-01T12:26:47;20.10;48.90
32753;DHT22;19121;52.428;10.816;2023-04-01T12:29:21;20.20;48.90
32753;DHT22;19121;52.428;10.816;2023-04-01T12:34:34;20.10;48.80
32753;DHT22;19121;52.428;10.816;2023-04-01T12:37:12;20.20;48.80
32753;DHT22;19121;52.428;10.816;2023-04-01T12:42:19;20.20;48.80
32753;DHT22;19121;52.428;10.816;2023-04-01T12:47:32;20.20;48.80
32753;DHT22;19121;52.428;10.816;2023-04-01T12:50:26;20.20;48.80
32753;DHT22;19121;52.428;10.816;2023-04-01T13:05:36;20.20;48.80
32753;DHT22;19121;52.428;10.816;2023-04-01T13:08:08;20.20;48.80
32753;DHT22;19121;52.428;10.816;2023-04-01T13:21:15;20.20;48.70
32753;DHT22;19121;52.428;10.816;2023-04-01T13:26:30;20.20;48.70
32753;DHT22;19121;52.428;10.816;2023-04-01T13:29:16;20.20;48.70
32753;DHT22;19121;52.428;10.816;2023-04-01T13:42:18;20.10;48.80
32753;DHT22;19121;52.428;10.816;2023-04-01T13:44:51;20.10;48.80
32753;DHT22;19121;52.428;10.816;2023-04-01T13:55:19;20.10;48.80
32753;DHT22;19121;52.428;10.816;2023-04-01T14:05:45;20.10;48.90
32753;DHT22;19121;52.428;10.816;2023-04-01T14:10:51;20.10;48.90
32753;DHT22;19121;52.428;10.816;2023-04-01T14:13:35;20.10;48.90
32753;DHT22;19121;52.428;10.816;2023-04-01T14:16:24;20.00;48.90
32753;DHT22;19121;52.428;10.816;2023-04-01T14:18:53;20.00;48.90
32753;DHT22;19121;52.428;10.816;2023-04-01T14:21:35;20.00;48.90
32753;DHT22;19121;52.428;10.816;2023-04-01T14:27:07;20.00;49.00
32753;DHT22;19121;52.428;10.816;2023-04-01T14:37:20;20.00;49.00
32753;DHT22;19121;52.428;10.816;2023-04-01T14:39:56;20.00;49.00
32753;DHT22;19121;52.428;10.816;2023-04-01T14:50:05;20.00;49.00
32753;DHT22;19121;52.428;10.816;2023-04-01T14:52:32;20.00;49.00
32753;DHT22;19121;52.428;10.816;2023-04-01T14:54:59;20.00;49.00
32753;DHT22;19121;52.428;10.816;2023-04-01T14:57:29;19.90;49.00
32753;DHT22;19121;52.428;10.816;2023-04-01T15:00:00;19.90;49.00
32753;DHT22;19121;52.428;10.816;2023-04-01T15:02:33;19.90;49.00
32753;DHT22;19121;52.428;10.816;2023-04-01T15:12:50;19.90;49.00
32753;DHT22;19121;52.428;10.816;2023-04-01T15:15:44;19.90;49.00
32753;DHT22;19121;52.428;10.816;2023-04-01T15:20:42;19.90;49.00
32753;DHT22;19121;52.428;10.816;2023-04-01T15:23:11;19.90;49.00
32753;DHT22;19121;52.428;10.816;2023-04-01T15:30:56;19.90;49.00
32753;DHT22;19121;52.428;10.816;2023-04-01T15:33:31;19.90;49.00
32753;DHT22;19121;52.428;10.816;2023-04-01T15:36:02;19.90;49.00
32753;DHT22;19121;52.428;10.816;2023-04-01T15:38:33;19.90;49.00
32753;DHT22;19121;52.428;10.816;2023-04-01T15:41:02;19.80;49.00
32753;DHT22;19121;52.428;10.816;2023-04-01T15:56:28;19.80;49.00
32753;DHT22;19121;52.428;10.816;2023-04-01T16:01:44;19.80;48.90
32753;DHT22;19121;52.428;10.816;2023-04-01T16:04:28;19.80;49.00
32753;DHT22;19121;52.428;10.816;2023-04-01T16:09:52;19.80;49.00
32753;DHT22;19121;52.428;10.816;2023-04-01T16:12:29;19.80;49.00
32753;DHT22;19121;52.428;10.816;2023-04-01T16:17:53;19.80;49.00
32753;DHT22;19121;52.428;10.816;2023-04-01T16:20:22;19.80;49.00
32753;DHT22;19121;52.428;10.816;2023-04-01T16:23:02;19.80;48.90
32753;DHT22;19121;52.428;10.816;2023-04-01T16:25:33;19.80;49.00
32753;DHT22;19121;52.428;10.816;2023-04-01T16:30:35;19.80;49.00
32753;DHT22;19121;52.428;10.816;2023-04-01T16:43:30;19.70;48.90
32753;DHT22;19121;52.428;10.816;2023-04-01T16:51:22;19.70;49.00
32753;DHT22;19121;52.428;10.816;2023-04-01T16:54:05;19.70;49.00
32753;DHT22;19121;52.428;10.816;2023-04-01T16:59:36;19.70;48.90
32753;DHT22;19121;52.428;10.816;2023-04-01T17:02:04;19.70;48.90
32753;DHT22;19121;52.428;10.816;2023-04-01T17:12:28;19.70;48.90
32753;DHT22;19121;52.428;10.816;2023-04-01T17:15:01;19.60;48.80
32753;DHT22;19121;52.428;10.816;2023-04-01T17:17:35;19.70;48.90
32753;DHT22;19121;52.428;10.816;2023-04-01T17:22:49;19.60;48.90
32753;DHT22;19121;52.428;10.816;2023-04-01T17:25:20;19.60;49.50
32753;DHT22;19121;52.428;10.816;2023-04-01T17:30:41;19.60;48.80
32753;DHT22;19121;52.428;10.816;2023-04-01T17:36:08;19.60;48.80
32753;DHT22;19121;52.428;10.816;2023-04-01T17:38:40;19.60;48.80
32753;DHT22;19121;52.428;10.816;2023-04-01T17:43:48;19.60;48.80
32753;DHT22;19121;52.428;10.816;2023-04-01T17:46:29;19.60;48.80
32753;DHT22;19121;52.428;10.816;2023-04-01T17:49:01;19.60;48.80
32753;DHT22;19121;52.428;10.816;2023-04-01T17:54:20;19.60;48.80
32753;DHT22;19121;52.428;10.816;2023-04-01T17:56:59;19.60;48.80
32753;DHT22;19121;52.428;10.816;2023-04-01T17:59:37;19.60;48.80
32753;DHT22;19121;52.428;10.816;2023-04-01T18:12:19;19.50;48.80
32753;DHT22;19121;52.428;10.816;2023-04-01T18:14:53;19.60;48.80
32753;DHT22;19121;52.428;10.816;2023-04-01T18:20:00;19.50;48.70
32753;DHT22;19121;52.428;10.816;2023-04-01T18:22:36;19.50;48.80
32753;DHT22;19121;52.428;10.816;2023-04-01T18:27:36;19.50;48.80
32753;DHT22;19121;52.428;10.816;2023-04-01T18:30:15;19.50;48.80
32753;DHT22;19121;52.428;10.816;2023-04-01T18:32:43;19.50;48.80
32753;DHT22;19121;52.428;10.816;2023-04-01T18:38:00;19.50;48.80
32753;DHT22;19121;52.428;10.816;2023-04-01T18:40:48;19.50;48.80
32753;DHT22;19121;52.428;10.816;2023-04-01T18:54:00;19.40;48.70
32753;DHT22;19121;52.428;10.816;2023-04-01T18:56:34;19.40;49.30
32753;DHT22;19121;52.428;10.816;2023-04-01T19:01:43;19.40;48.70
32753;DHT22;19121;52.428;10.816;2023-04-01T19:06:43;19.40;48.70
32753;DHT22;19121;52.428;10.816;2023-04-01T19:09:21;19.40;48.70
32753;DHT22;19121;52.428;10.816;2023-04-01T19:11:52;19.40;48.80
32753;DHT22;19121;52.428;10.816;2023-04-01T19:14:25;19.30;48.70
32753;DHT22;19121;52.428;10.816;2023-04-01T19:16:58;19.30;48.70
32753;DHT22;19121;52.428;10.816;2023-04-01T19:21:58;19.30;48.80
32753;DHT22;19121;52.428;10.816;2023-04-01T19:26:56;19.30;48.70
32753;DHT22;19121;52.428;10.816;2023-04-01T19:32:22;19.30;48.70
32753;DHT22;19121;52.428;10.816;2023-04-01T19:34:57;19.30;48.70
32753;DHT22;19121;52.428;10.816;2023-04-01T19:37:32;19.30;48.70
32753;DHT22;19121;52.428;10.816;2023-04-01T19:40:16;19.30;48.60
32753;DHT22;19121;52.428;10.816;2023-04-01T19:48:30;19.30;48.60
32753;DHT22;19121;52.428;10.816;2023-04-01T19:50:58;19.20;48.50
32753;DHT22;19121;52.428;10.816;2023-04-01T19:56:20;19.20;48.60
32753;DHT22;19121;52.428;10.816;2023-04-01T19:58:51;19.20;48.60
32753;DHT22;19121;52.428;10.816;2023-04-01T20:01:22;19.20;48.50
32753;DHT22;19121;52.428;10.816;2023-04-01T20:03:54;19.20;48.50
32753;DHT22;19121;52.428;10.816;2023-04-01T20:06:22;19.20;48.50
32753;DHT22;19121;52.428;10.816;2023-04-01T20:11:38;19.20;48.60
32753;DHT22;19121;52.428;10.816;2023-04-01T20:14:18;19.10;48.50
32753;DHT22;19121;52.428;10.816;2023-04-01T20:16:51;19.10;48.60
32753;DHT22;19121;52.428;10.816;2023-04-01T20:19:38;19.10;48.60
32753;DHT22;19121;52.428;10.816;2023-04-01T20:22:08;19.10;48.50
32753;DHT22;19121;52.428;10.816;2023-04-01T20:24:44;19.10;48.50
32753;DHT22;19121;52.428;10.816;2023-04-01T20:34:58;19.10;48.50
32753;DHT22;19121;52.428;10.816;2023-04-01T20:37:36;19.00;48.50
32753;DHT22;19121;52.428;10.816;2023-04-01T20:48:10;19.00;48.50
32753;DHT22;19121;52.428;10.816;2023-04-01T20:50:53;19.00;48.50
32753;DHT22;19121;52.428;10.816;2023-04-01T20:56:02;19.00;48.40
32753;DHT22;19121;52.428;10.816;2023-04-01T20:59:36;19.00;48.50
32753;DHT22;19121;52.428;10.816;2023-04-01T21:04:04;19.00;48.40
32753;DHT22;19121;52.428;10.816;2023-04-01T21:12:00;18.90;48.40
32753;DHT22;19121;52.428;10.816;2023-04-01T21:17:42;18.90;48.30
32753;DHT22;19121;52.428;10.816;2023-04-01T21:20:07;19.00;48.40
32753;DHT22;19121;52.428;10.816;2023-04-01T21:25:20;18.90;48.30
32753;DHT22;19121;52.428;10.816;2023-04-01T21:27:56;18.90;48.30
32753;DHT22;19121;52.428;10.816;2023-04-01T21:30:44;18.90;48.30
32753;DHT22;19121;52.428;10.816;2023-04-01T21:33:37;18.90;48.30
32753;DHT22;19121;52.428;10.816;2023-04-01T21:38:57;18.90;48.30
32753;DHT22;19121;52.428;10.816;2023-04-01T21:44:04;18.90;48.30
32753;DHT22;19121;52.428;10.816;2023-04-01T21:51:51;18.80;48.30
32753;DHT22;19121;52.428;10.816;2023-04-01T21:57:05;18.80;48.30
32753;DHT22;19121;52.428;10.816;2023-04-01T21:59:39;18.80;48.30
32753;DHT22;19121;52.428;10.816;2023-04-01T22:07:29;18.80;48.30
32753;DHT22;19121;52.428;10.816;2023-04-01T22:12:35;18.80;48.20
32753;DHT22;19121;52.428;10.816;2023-04-01T22:17:33;18.80;48.20
32753;DHT22;19121;52.428;10.816;2023-04-01T22:20:10;18.80;48.20
32753;DHT22;19121;52.428;10.816;2023-04-01T22:27:48;18.80;48.20
32753;DHT22;19121;52.428;10.816;2023-04-01T22:30:27;18.70;48.20
32753;DHT22;19121;52.428;10.816;2023-04-01T22:32:58;18.70;48.20
32753;DHT22;19121;52.428;10.816;2023-04-01T22:35:33;18.70;48.80
32753;DHT22;19121;52.428;10.816;2023-04-01T22:38:03;18.70;48.10
32753;DHT22;19121;52.428;10.816;2023-04-01T22:40:54;18.70;48.10
32753;DHT22;19121;52.428;10.816;2023-04-01T22:43:21;18.70;48.20
32753;DHT22;19121;52.428;10.816;2023-04-01T22:45:58;18.70;48.10
32753;DHT22;19121;52.428;10.816;2023-04-01T22:48:35;18.70;48.10
32753;DHT22;19121;52.428;10.816;2023-04-01T22:51:21;18.70;48.10
32753;DHT22;19121;52.428;10.816;2023-04-01T22:53:57;18.70;48.10
32753;DHT22;19121;52.428;10.816;2023-04-01T22:56:35;18.70;48.10
32753;DHT22;19121;52.428;10.816;2023-04-01T22:59:06;18.70;48.10
32753;DHT22;19121;52.428;10.816;2023-04-01T23:01:34;18.70;48.10
32753;DHT22;19121;52.428;10.816;2023-04-01T23:04:03;18.70;48.10
32753;DHT22;19121;52.428;10.816;2023-04-01T23:06:31;18.70;48.10
32753;DHT22;19121;52.428;10.816;2023-04-01T23:09:08;18.70;48.70